Titania — 9HA2272 — position and weather

sailwx.info

Track history (hours):
 
Tides and Currents Weather Stations Pressure Air Temp Water Temp Dewpoint Dewpoint Depression Visibility Wind Speed Wind Dir Waves Ship Positions

Titania

Last reported at 2018-Jan-18 17:36 UTC. Time now 2018-Jan-23 06:18 UTC.
Position N 22°24' E 121°29'.

Length 231 m; draft 10 m.

Type: Cargo ship. MMSI: 248225000.

Date/timePositionNaut miles runAvg speedWind from/ knotsBaromVisibWave heightAir tempDewpointWater temp
2018-Jan-18 17:36N 22°24' E 121°29'217.4
2018-Jan-18 17:28N 22°26' E 121°31'4718.1
2018-Jan-18 14:51N 23°05' E 122°00'618.0
2018-Jan-18 14:30N 23°10' E 122°04'1017.8
2018-Jan-18 13:56N 23°19' E 122°10'1017.5
2018-Jan-18 13:21N 23°28' E 122°14'617.4
2018-Jan-18 13:00N 23°34' E 122°16'917.4
2018-Jan-18 12:30N 23°43' E 122°18'917.6
2018-Jan-18 12:00N 23°51' E 122°21'917.8
2018-Jan-18 11:30N 23°59' E 122°24'917.2
2018-Jan-18 11:00N 24°08' E 122°26'816.9
2018-Jan-18 10:30N 24°16' E 122°28'816.8
2018-Jan-18 10:00N 24°24' E 122°29'816.6
2018-Jan-18 09:30N 24°32' E 122°32'917.4
2018-Jan-18 09:01N 24°41' E 122°34'917.0
2018-Jan-18 08:30N 24°49' E 122°36'917.2
2018-Jan-18 08:00N 24°57' E 122°38'917.0
2018-Jan-18 07:30N 25°06' E 122°40'816.5
2018-Jan-18 07:00N 25°14' E 122°42'  
Track history (hours):
 
Tides and Currents Weather Stations Pressure Air Temp Water Temp Dewpoint Dewpoint Depression Visibility Wind Speed Wind Dir Waves Ship Positions

Titania

Last reported at 2018-Jan-18 17:36 UTC. Time now 2018-Jan-23 06:18 UTC.
Position N 22°24' E 121°29'.

Length 231 m; draft 10 m.

Type: Cargo ship. MMSI: 248225000.

Date/timePositionNaut miles runAvg speedWind from/ knotsBaromVisibWave heightAir tempDewpointWater temp
2018-Jan-18 17:36N 22°24' E 121°29'217.4
2018-Jan-18 17:28N 22°26' E 121°31'4718.1
2018-Jan-18 14:51N 23°05' E 122°00'618.0
2018-Jan-18 14:30N 23°10' E 122°04'1017.8
2018-Jan-18 13:56N 23°19' E 122°10'1017.5
2018-Jan-18 13:21N 23°28' E 122°14'617.4
2018-Jan-18 13:00N 23°34' E 122°16'917.4
2018-Jan-18 12:30N 23°43' E 122°18'917.6
2018-Jan-18 12:00N 23°51' E 122°21'917.8
2018-Jan-18 11:30N 23°59' E 122°24'917.2
2018-Jan-18 11:00N 24°08' E 122°26'816.9
2018-Jan-18 10:30N 24°16' E 122°28'816.8
2018-Jan-18 10:00N 24°24' E 122°29'816.6
2018-Jan-18 09:30N 24°32' E 122°32'917.4
2018-Jan-18 09:01N 24°41' E 122°34'917.0
2018-Jan-18 08:30N 24°49' E 122°36'917.2
2018-Jan-18 08:00N 24°57' E 122°38'917.0
2018-Jan-18 07:30N 25°06' E 122°40'816.5
2018-Jan-18 07:00N 25°14' E 122°42'  

Dump ship's entire track history